sensor_id;sensor_type;location;lat;lon;timestamp;P1;durP1;ratioP1;P2;durP2;ratioP2
1174;SDS011;576;48.418;10.074;2022-08-21T00:01:50;1.60;;;1.50;;
1174;SDS011;576;48.418;10.074;2022-08-21T00:04:19;1.60;;;1.50;;
1174;SDS011;576;48.418;10.074;2022-08-21T00:06:56;1.57;;;1.37;;
1174;SDS011;576;48.418;10.074;2022-08-21T00:09:24;2.23;;;1.43;;
1174;SDS011;576;48.418;10.074;2022-08-21T00:11:53;1.60;;;1.50;;
1174;SDS011;576;48.418;10.074;2022-08-21T00:14:21;2.27;;;2.17;;
1174;SDS011;576;48.418;10.074;2022-08-21T00:16:49;1.93;;;1.83;;
1174;SDS011;576;48.418;10.074;2022-08-21T00:19:22;1.90;;;1.80;;
1174;SDS011;576;48.418;10.074;2022-08-21T00:21:51;1.43;;;1.33;;
1174;SDS011;576;48.418;10.074;2022-08-21T00:24:22;1.70;;;1.60;;
1174;SDS011;576;48.418;10.074;2022-08-21T00:26:51;2.37;;;2.17;;
1174;SDS011;576;48.418;10.074;2022-08-21T00:29:19;3.63;;;2.80;;
1174;SDS011;576;48.418;10.074;2022-08-21T00:31:48;2.10;;;2.00;;
1174;SDS011;576;48.418;10.074;2022-08-21T00:34:16;2.57;;;2.47;;
1174;SDS011;576;48.418;10.074;2022-08-21T00:36:44;2.17;;;2.03;;
1174;SDS011;576;48.418;10.074;2022-08-21T00:39:13;2.40;;;2.23;;
1174;SDS011;576;48.418;10.074;2022-08-21T00:41:42;2.23;;;2.13;;
1174;SDS011;576;48.418;10.074;2022-08-21T00:44:12;2.50;;;2.30;;
1174;SDS011;576;48.418;10.074;2022-08-21T00:46:41;3.50;;;3.30;;
1174;SDS011;576;48.418;10.074;2022-08-21T00:49:10;2.63;;;2.50;;
1174;SDS011;576;48.418;10.074;2022-08-21T00:51:40;2.83;;;2.73;;
1174;SDS011;576;48.418;10.074;2022-08-21T00:54:12;2.90;;;2.80;;
1174;SDS011;576;48.418;10.074;2022-08-21T00:56:46;2.57;;;2.47;;
1174;SDS011;576;48.418;10.074;2022-08-21T00:59:20;3.03;;;2.73;;
1174;SDS011;576;48.418;10.074;2022-08-21T01:01:50;4.13;;;3.77;;
1174;SDS011;576;48.418;10.074;2022-08-21T01:04:19;3.70;;;2.73;;
1174;SDS011;576;48.418;10.074;2022-08-21T01:06:48;2.80;;;2.60;;
1174;SDS011;576;48.418;10.074;2022-08-21T01:09:17;4.70;;;4.30;;
1174;SDS011;576;48.418;10.074;2022-08-21T01:11:48;4.33;;;3.93;;
1174;SDS011;576;48.418;10.074;2022-08-21T01:14:16;4.37;;;3.97;;
1174;SDS011;576;48.418;10.074;2022-08-21T01:16:46;4.10;;;3.70;;
1174;SDS011;576;48.418;10.074;2022-08-21T01:19:17;3.90;;;3.60;;
1174;SDS011;576;48.418;10.074;2022-08-21T01:21:48;3.70;;;3.40;;
1174;SDS011;576;48.418;10.074;2022-08-21T01:24:17;4.80;;;4.40;;
1174;SDS011;576;48.418;10.074;2022-08-21T01:26:45;3.57;;;3.27;;
1174;SDS011;576;48.418;10.074;2022-08-21T01:29:16;4.37;;;4.07;;
1174;SDS011;576;48.418;10.074;2022-08-21T01:31:54;4.47;;;4.17;;
1174;SDS011;576;48.418;10.074;2022-08-21T01:34:22;5.13;;;4.73;;
1174;SDS011;576;48.418;10.074;2022-08-21T01:36:52;4.03;;;3.73;;
1174;SDS011;576;48.418;10.074;2022-08-21T01:39:20;3.47;;;3.27;;
1174;SDS011;576;48.418;10.074;2022-08-21T01:41:48;4.30;;;4.00;;
1174;SDS011;576;48.418;10.074;2022-08-21T01:44:20;5.23;;;4.80;;
1174;SDS011;576;48.418;10.074;2022-08-21T01:46:49;5.10;;;4.20;;
1174;SDS011;576;48.418;10.074;2022-08-21T01:49:18;4.27;;;3.97;;
1174;SDS011;576;48.418;10.074;2022-08-21T01:51:47;4.83;;;4.43;;
1174;SDS011;576;48.418;10.074;2022-08-21T01:54:16;4.33;;;4.03;;
1174;SDS011;576;48.418;10.074;2022-08-21T01:56:45;5.10;;;4.70;;
1174;SDS011;576;48.418;10.074;2022-08-21T01:59:15;4.17;;;3.87;;
1174;SDS011;576;48.418;10.074;2022-08-21T02:01:44;4.13;;;3.83;;
1174;SDS011;576;48.418;10.074;2022-08-21T02:04:12;4.07;;;3.77;;
1174;SDS011;576;48.418;10.074;2022-08-21T02:06:40;3.53;;;3.33;;
1174;SDS011;576;48.418;10.074;2022-08-21T02:09:10;4.20;;;3.90;;
1174;SDS011;576;48.418;10.074;2022-08-21T02:11:41;4.23;;;3.93;;
1174;SDS011;576;48.418;10.074;2022-08-21T02:14:10;4.30;;;4.00;;
1174;SDS011;576;48.418;10.074;2022-08-21T02:16:57;4.33;;;4.03;;
1174;SDS011;576;48.418;10.074;2022-08-21T02:19:34;4.23;;;3.93;;
1174;SDS011;576;48.418;10.074;2022-08-21T02:22:06;4.50;;;4.13;;
1174;SDS011;576;48.418;10.074;2022-08-21T02:24:35;4.77;;;4.37;;
1174;SDS011;576;48.418;10.074;2022-08-21T02:27:21;4.80;;;4.40;;
1174;SDS011;576;48.418;10.074;2022-08-21T02:29:52;4.70;;;4.37;;
1174;SDS011;576;48.418;10.074;2022-08-21T02:32:21;3.83;;;3.63;;
1174;SDS011;576;48.418;10.074;2022-08-21T02:34:49;4.60;;;4.30;;
1174;SDS011;576;48.418;10.074;2022-08-21T02:37:17;4.80;;;4.50;;
1174;SDS011;576;48.418;10.074;2022-08-21T02:39:45;4.63;;;4.33;;
1174;SDS011;576;48.418;10.074;2022-08-21T02:42:14;4.23;;;3.93;;
1174;SDS011;576;48.418;10.074;2022-08-21T02:44:44;5.20;;;4.80;;
1174;SDS011;576;48.418;10.074;2022-08-21T02:47:13;3.77;;;3.53;;
1174;SDS011;576;48.418;10.074;2022-08-21T02:49:41;4.57;;;4.17;;
1174;SDS011;576;48.418;10.074;2022-08-21T02:52:10;4.17;;;3.87;;
1174;SDS011;576;48.418;10.074;2022-08-21T02:54:38;5.73;;;4.37;;
1174;SDS011;576;48.418;10.074;2022-08-21T02:57:06;4.50;;;4.10;;
1174;SDS011;576;48.418;10.074;2022-08-21T02:59:35;4.80;;;4.40;;
1174;SDS011;576;48.418;10.074;2022-08-21T03:02:04;5.27;;;4.90;;
1174;SDS011;576;48.418;10.074;2022-08-21T03:04:33;4.60;;;4.27;;
1174;SDS011;576;48.418;10.074;2022-08-21T03:07:01;4.03;;;3.73;;
1174;SDS011;576;48.418;10.074;2022-08-21T03:09:31;5.00;;;4.60;;
1174;SDS011;576;48.418;10.074;2022-08-21T03:12:00;4.63;;;4.33;;
1174;SDS011;576;48.418;10.074;2022-08-21T03:14:28;6.30;;;5.80;;
1174;SDS011;576;48.418;10.074;2022-08-21T03:16:56;4.90;;;4.60;;
1174;SDS011;576;48.418;10.074;2022-08-21T03:19:26;6.87;;;6.40;;
1174;SDS011;576;48.418;10.074;2022-08-21T03:21:54;5.30;;;4.83;;
1174;SDS011;576;48.418;10.074;2022-08-21T03:24:22;5.50;;;5.10;;
1174;SDS011;576;48.418;10.074;2022-08-21T03:26:50;5.33;;;4.93;;
1174;SDS011;576;48.418;10.074;2022-08-21T03:29:18;5.40;;;5.00;;
1174;SDS011;576;48.418;10.074;2022-08-21T03:31:47;4.70;;;4.30;;
1174;SDS011;576;48.418;10.074;2022-08-21T03:34:15;3.90;;;3.60;;
1174;SDS011;576;48.418;10.074;2022-08-21T03:36:44;4.60;;;4.30;;
1174;SDS011;576;48.418;10.074;2022-08-21T03:39:13;5.60;;;5.20;;
1174;SDS011;576;48.418;10.074;2022-08-21T03:41:41;4.80;;;4.50;;
1174;SDS011;576;48.418;10.074;2022-08-21T03:44:09;5.30;;;4.90;;
1174;SDS011;576;48.418;10.074;2022-08-21T03:46:38;5.43;;;5.03;;
1174;SDS011;576;48.418;10.074;2022-08-21T03:49:06;5.87;;;5.47;;
1174;SDS011;576;48.418;10.074;2022-08-21T03:51:34;4.87;;;4.57;;
1174;SDS011;576;48.418;10.074;2022-08-21T03:54:04;4.93;;;4.60;;
1174;SDS011;576;48.418;10.074;2022-08-21T03:56:33;5.70;;;5.30;;
1174;SDS011;576;48.418;10.074;2022-08-21T03:59:01;5.60;;;5.20;;
1174;SDS011;576;48.418;10.074;2022-08-21T04:01:29;5.90;;;5.50;;
1174;SDS011;576;48.418;10.074;2022-08-21T04:03:58;6.53;;;6.03;;
1174;SDS011;576;48.418;10.074;2022-08-21T04:06:26;6.07;;;5.63;;
1174;SDS011;576;48.418;10.074;2022-08-21T04:08:58;6.90;;;6.40;;
1174;SDS011;576;48.418;10.074;2022-08-21T04:11:28;7.43;;;6.83;;
1174;SDS011;576;48.418;10.074;2022-08-21T04:13:56;5.07;;;4.67;;
1174;SDS011;576;48.418;10.074;2022-08-21T04:16:24;4.97;;;4.67;;
1174;SDS011;576;48.418;10.074;2022-08-21T04:18:53;6.90;;;6.40;;
1174;SDS011;576;48.418;10.074;2022-08-21T04:21:21;5.13;;;4.77;;
1174;SDS011;576;48.418;10.074;2022-08-21T04:23:50;5.63;;;5.23;;
1174;SDS011;576;48.418;10.074;2022-08-21T04:26:18;7.17;;;6.57;;
1174;SDS011;576;48.418;10.074;2022-08-21T04:28:47;7.00;;;6.50;;
1174;SDS011;576;48.418;10.074;2022-08-21T04:31:16;6.90;;;6.40;;
1174;SDS011;576;48.418;10.074;2022-08-21T04:33:44;5.80;;;5.40;;
1174;SDS011;576;48.418;10.074;2022-08-21T04:36:12;6.33;;;5.90;;
1174;SDS011;576;48.418;10.074;2022-08-21T04:38:40;6.80;;;6.30;;
1174;SDS011;576;48.418;10.074;2022-08-21T04:41:10;8.00;;;7.30;;
1174;SDS011;576;48.418;10.074;2022-08-21T04:43:38;7.00;;;6.50;;
1174;SDS011;576;48.418;10.074;2022-08-21T04:46:08;6.73;;;6.23;;
1174;SDS011;576;48.418;10.074;2022-08-21T04:48:39;6.73;;;6.30;;
1174;SDS011;576;48.418;10.074;2022-08-21T04:51:08;6.00;;;5.60;;
1174;SDS011;576;48.418;10.074;2022-08-21T04:53:41;6.33;;;5.80;;
1174;SDS011;576;48.418;10.074;2022-08-21T04:56:14;6.70;;;6.20;;
1174;SDS011;576;48.418;10.074;2022-08-21T04:58:46;7.10;;;6.60;;
1174;SDS011;576;48.418;10.074;2022-08-21T05:01:18;6.60;;;6.10;;
1174;SDS011;576;48.418;10.074;2022-08-21T05:03:48;7.20;;;6.60;;
1174;SDS011;576;48.418;10.074;2022-08-21T05:06:19;5.70;;;5.30;;
1174;SDS011;576;48.418;10.074;2022-08-21T05:08:48;6.80;;;6.10;;
1174;SDS011;576;48.418;10.074;2022-08-21T05:11:27;6.80;;;6.30;;
1174;SDS011;576;48.418;10.074;2022-08-21T05:13:56;6.50;;;6.00;;
1174;SDS011;576;48.418;10.074;2022-08-21T05:16:26;5.87;;;5.37;;
1174;SDS011;576;48.418;10.074;2022-08-21T05:19:03;7.20;;;6.60;;
1174;SDS011;576;48.418;10.074;2022-08-21T05:21:32;6.80;;;6.23;;
1174;SDS011;576;48.418;10.074;2022-08-21T05:24:01;5.73;;;5.33;;
1174;SDS011;576;48.418;10.074;2022-08-21T05:26:29;6.50;;;5.80;;
1174;SDS011;576;48.418;10.074;2022-08-21T05:28:58;7.37;;;6.67;;
1174;SDS011;576;48.418;10.074;2022-08-21T05:31:28;6.23;;;5.80;;
1174;SDS011;576;48.418;10.074;2022-08-21T05:33:57;5.30;;;4.90;;
1174;SDS011;576;48.418;10.074;2022-08-21T05:36:28;6.37;;;5.77;;
1174;SDS011;576;48.418;10.074;2022-08-21T05:38:57;5.87;;;5.43;;
1174;SDS011;576;48.418;10.074;2022-08-21T05:41:25;6.20;;;5.70;;
1174;SDS011;576;48.418;10.074;2022-08-21T05:43:53;6.43;;;5.87;;
1174;SDS011;576;48.418;10.074;2022-08-21T05:46:21;6.13;;;5.63;;
1174;SDS011;576;48.418;10.074;2022-08-21T05:48:51;6.03;;;5.63;;
1174;SDS011;576;48.418;10.074;2022-08-21T05:51:19;5.30;;;4.90;;
1174;SDS011;576;48.418;10.074;2022-08-21T05:53:47;5.20;;;4.80;;
1174;SDS011;576;48.418;10.074;2022-08-21T05:56:16;6.23;;;5.73;;
1174;SDS011;576;48.418;10.074;2022-08-21T05:58:44;4.80;;;4.40;;
1174;SDS011;576;48.418;10.074;2022-08-21T06:01:12;4.63;;;4.33;;
1174;SDS011;576;48.418;10.074;2022-08-21T06:03:42;6.00;;;5.50;;
1174;SDS011;576;48.418;10.074;2022-08-21T06:06:11;6.47;;;5.97;;
1174;SDS011;576;48.418;10.074;2022-08-21T06:08:39;5.93;;;5.33;;
1174;SDS011;576;48.418;10.074;2022-08-21T06:11:08;8.90;;;5.60;;
1174;SDS011;576;48.418;10.074;2022-08-21T06:13:37;5.23;;;4.93;;
1174;SDS011;576;48.418;10.074;2022-08-21T06:16:06;6.10;;;5.50;;
1174;SDS011;576;48.418;10.074;2022-08-21T06:18:36;5.67;;;5.20;;
1174;SDS011;576;48.418;10.074;2022-08-21T06:21:06;5.83;;;5.33;;
1174;SDS011;576;48.418;10.074;2022-08-21T06:23:36;5.40;;;5.00;;
1174;SDS011;576;48.418;10.074;2022-08-21T06:26:05;5.50;;;5.10;;
1174;SDS011;576;48.418;10.074;2022-08-21T06:28:34;5.47;;;5.07;;
1174;SDS011;576;48.418;10.074;2022-08-21T06:31:10;5.40;;;5.00;;
1174;SDS011;576;48.418;10.074;2022-08-21T06:33:39;5.97;;;5.50;;
1174;SDS011;576;48.418;10.074;2022-08-21T06:36:07;5.07;;;4.57;;
1174;SDS011;576;48.418;10.074;2022-08-21T06:38:37;5.50;;;5.00;;
1174;SDS011;576;48.418;10.074;2022-08-21T06:41:06;5.10;;;4.70;;
1174;SDS011;576;48.418;10.074;2022-08-21T06:43:35;5.60;;;5.20;;
1174;SDS011;576;48.418;10.074;2022-08-21T06:46:05;5.70;;;5.20;;
1174;SDS011;576;48.418;10.074;2022-08-21T06:48:34;5.27;;;4.87;;
1174;SDS011;576;48.418;10.074;2022-08-21T06:51:05;4.90;;;4.50;;
1174;SDS011;576;48.418;10.074;2022-08-21T06:53:33;5.33;;;4.93;;
1174;SDS011;576;48.418;10.074;2022-08-21T06:56:07;5.20;;;4.80;;
1174;SDS011;576;48.418;10.074;2022-08-21T06:58:35;5.30;;;4.90;;
1174;SDS011;576;48.418;10.074;2022-08-21T07:01:06;5.23;;;4.83;;
1174;SDS011;576;48.418;10.074;2022-08-21T07:03:35;5.37;;;4.97;;
1174;SDS011;576;48.418;10.074;2022-08-21T07:06:05;5.33;;;4.83;;
1174;SDS011;576;48.418;10.074;2022-08-21T07:08:35;5.63;;;5.23;;
1174;SDS011;576;48.418;10.074;2022-08-21T07:11:09;5.00;;;4.60;;
1174;SDS011;576;48.418;10.074;2022-08-21T07:13:40;6.13;;;5.53;;
1174;SDS011;576;48.418;10.074;2022-08-21T07:16:08;6.20;;;5.60;;
1174;SDS011;576;48.418;10.074;2022-08-21T07:18:36;5.27;;;4.87;;
1174;SDS011;576;48.418;10.074;2022-08-21T07:21:05;4.13;;;3.83;;
1174;SDS011;576;48.418;10.074;2022-08-21T07:23:35;5.30;;;4.90;;
1174;SDS011;576;48.418;10.074;2022-08-21T07:26:06;4.80;;;4.50;;
1174;SDS011;576;48.418;10.074;2022-08-21T07:28:35;5.27;;;4.87;;
1174;SDS011;576;48.418;10.074;2022-08-21T07:31:06;4.80;;;4.50;;
1174;SDS011;576;48.418;10.074;2022-08-21T07:33:36;5.10;;;4.70;;
1174;SDS011;576;48.418;10.074;2022-08-21T07:36:05;4.60;;;4.30;;
1174;SDS011;576;48.418;10.074;2022-08-21T07:38:33;6.10;;;5.10;;
1174;SDS011;576;48.418;10.074;2022-08-21T07:41:02;5.90;;;4.90;;
1174;SDS011;576;48.418;10.074;2022-08-21T07:43:38;5.07;;;4.67;;
1174;SDS011;576;48.418;10.074;2022-08-21T07:46:11;5.73;;;5.30;;
1174;SDS011;576;48.418;10.074;2022-08-21T07:48:40;4.90;;;4.50;;
1174;SDS011;576;48.418;10.074;2022-08-21T07:51:09;4.43;;;4.10;;
1174;SDS011;576;48.418;10.074;2022-08-21T07:53:40;4.40;;;4.10;;
1174;SDS011;576;48.418;10.074;2022-08-21T07:56:10;4.70;;;4.40;;
1174;SDS011;576;48.418;10.074;2022-08-21T07:58:38;4.83;;;4.40;;
1174;SDS011;576;48.418;10.074;2022-08-21T08:01:06;6.40;;;5.80;;
1174;SDS011;576;48.418;10.074;2022-08-21T08:03:35;6.60;;;6.00;;
1174;SDS011;576;48.418;10.074;2022-08-21T08:06:06;5.40;;;5.00;;
1174;SDS011;576;48.418;10.074;2022-08-21T08:08:38;5.40;;;5.00;;
1174;SDS011;576;48.418;10.074;2022-08-21T08:11:07;5.80;;;5.30;;
1174;SDS011;576;48.418;10.074;2022-08-21T08:13:41;5.13;;;4.70;;
1174;SDS011;576;48.418;10.074;2022-08-21T08:16:11;5.40;;;4.93;;
1174;SDS011;576;48.418;10.074;2022-08-21T08:18:39;5.10;;;4.70;;
1174;SDS011;576;48.418;10.074;2022-08-21T08:21:08;5.27;;;4.80;;
1174;SDS011;576;48.418;10.074;2022-08-21T08:23:37;4.67;;;4.27;;
1174;SDS011;576;48.418;10.074;2022-08-21T08:26:05;4.50;;;4.10;;
1174;SDS011;576;48.418;10.074;2022-08-21T08:28:34;5.30;;;4.27;;
1174;SDS011;576;48.418;10.074;2022-08-21T08:31:06;4.47;;;4.07;;
1174;SDS011;576;48.418;10.074;2022-08-21T08:33:35;5.37;;;4.97;;
1174;SDS011;576;48.418;10.074;2022-08-21T08:36:08;4.77;;;4.33;;
1174;SDS011;576;48.418;10.074;2022-08-21T08:38:40;5.23;;;4.73;;
1174;SDS011;576;48.418;10.074;2022-08-21T08:41:11;5.80;;;4.40;;
1174;SDS011;576;48.418;10.074;2022-08-21T08:43:42;4.43;;;4.13;;
1174;SDS011;576;48.418;10.074;2022-08-21T08:46:18;4.50;;;4.10;;
1174;SDS011;576;48.418;10.074;2022-08-21T08:48:54;4.53;;;4.13;;
1174;SDS011;576;48.418;10.074;2022-08-21T08:51:29;4.70;;;4.30;;
1174;SDS011;576;48.418;10.074;2022-08-21T08:54:07;4.37;;;4.07;;
1174;SDS011;576;48.418;10.074;2022-08-21T08:56:39;4.53;;;4.23;;
1174;SDS011;576;48.418;10.074;2022-08-21T08:59:09;4.70;;;4.40;;
1174;SDS011;576;48.418;10.074;2022-08-21T09:01:47;4.00;;;3.60;;
1174;SDS011;576;48.418;10.074;2022-08-21T09:04:18;4.90;;;4.50;;
1174;SDS011;576;48.418;10.074;2022-08-21T09:06:53;4.30;;;4.00;;
1174;SDS011;576;48.418;10.074;2022-08-21T09:09:31;5.13;;;4.73;;
1174;SDS011;576;48.418;10.074;2022-08-21T09:12:09;4.80;;;4.40;;
1174;SDS011;576;48.418;10.074;2022-08-21T09:14:47;3.93;;;3.47;;
1174;SDS011;576;48.418;10.074;2022-08-21T09:17:30;6.17;;;4.30;;
1174;SDS011;576;48.418;10.074;2022-08-21T09:20:13;4.13;;;3.73;;
1174;SDS011;576;48.418;10.074;2022-08-21T09:22:56;4.20;;;3.80;;
1174;SDS011;576;48.418;10.074;2022-08-21T09:25:38;4.03;;;3.73;;
1174;SDS011;576;48.418;10.074;2022-08-21T09:28:13;4.10;;;3.80;;
1174;SDS011;576;48.418;10.074;2022-08-21T09:30:41;4.10;;;3.80;;
1174;SDS011;576;48.418;10.074;2022-08-21T09:33:11;4.00;;;3.80;;
1174;SDS011;576;48.418;10.074;2022-08-21T09:35:48;3.57;;;3.30;;
1174;SDS011;576;48.418;10.074;2022-08-21T09:38:25;4.13;;;3.83;;
1174;SDS011;576;48.418;10.074;2022-08-21T09:40:57;3.77;;;3.47;;
1174;SDS011;576;48.418;10.074;2022-08-21T09:43:30;3.70;;;3.50;;
1174;SDS011;576;48.418;10.074;2022-08-21T09:46:07;4.57;;;4.23;;
1174;SDS011;576;48.418;10.074;2022-08-21T09:48:43;3.40;;;3.17;;
1174;SDS011;576;48.418;10.074;2022-08-21T09:51:14;4.30;;;3.93;;
1174;SDS011;576;48.418;10.074;2022-08-21T09:53:44;3.27;;;3.07;;
1174;SDS011;576;48.418;10.074;2022-08-21T09:56:16;4.20;;;3.90;;
1174;SDS011;576;48.418;10.074;2022-08-21T09:59:14;3.57;;;3.33;;
1174;SDS011;576;48.418;10.074;2022-08-21T10:01:48;3.90;;;3.60;;
1174;SDS011;576;48.418;10.074;2022-08-21T10:04:22;5.70;;;3.13;;
1174;SDS011;576;48.418;10.074;2022-08-21T10:06:51;4.03;;;3.70;;
1174;SDS011;576;48.418;10.074;2022-08-21T10:09:23;3.17;;;2.97;;
1174;SDS011;576;48.418;10.074;2022-08-21T10:11:53;4.27;;;3.97;;
1174;SDS011;576;48.418;10.074;2022-08-21T10:14:40;3.80;;;3.43;;
1174;SDS011;576;48.418;10.074;2022-08-21T10:17:20;4.00;;;3.70;;
1174;SDS011;576;48.418;10.074;2022-08-21T10:19:56;3.27;;;3.07;;
1174;SDS011;576;48.418;10.074;2022-08-21T10:22:34;3.20;;;3.00;;
1174;SDS011;576;48.418;10.074;2022-08-21T10:25:14;3.70;;;3.40;;
1174;SDS011;576;48.418;10.074;2022-08-21T10:27:49;3.07;;;2.87;;
1174;SDS011;576;48.418;10.074;2022-08-21T10:30:30;3.20;;;3.00;;
1174;SDS011;576;48.418;10.074;2022-08-21T10:33:10;3.97;;;3.63;;
1174;SDS011;576;48.418;10.074;2022-08-21T10:35:51;3.60;;;3.10;;
1174;SDS011;576;48.418;10.074;2022-08-21T10:38:40;3.80;;;3.50;;
1174;SDS011;576;48.418;10.074;2022-08-21T10:42:02;3.23;;;3.00;;
1174;SDS011;576;48.418;10.074;2022-08-21T10:44:41;3.77;;;3.47;;
1174;SDS011;576;48.418;10.074;2022-08-21T10:47:18;3.57;;;3.27;;
1174;SDS011;576;48.418;10.074;2022-08-21T10:49:59;3.40;;;3.10;;
1174;SDS011;576;48.418;10.074;2022-08-21T10:52:49;3.20;;;3.00;;
1174;SDS011;576;48.418;10.074;2022-08-21T10:55:32;3.30;;;3.10;;
1174;SDS011;576;48.418;10.074;2022-08-21T10:58:08;3.43;;;3.20;;
1174;SDS011;576;48.418;10.074;2022-08-21T11:00:39;4.03;;;3.73;;
1174;SDS011;576;48.418;10.074;2022-08-21T11:03:11;4.70;;;3.03;;
1174;SDS011;576;48.418;10.074;2022-08-21T11:05:48;5.40;;;3.80;;
1174;SDS011;576;48.418;10.074;2022-08-21T11:08:23;7.00;;;3.90;;
1174;SDS011;576;48.418;10.074;2022-08-21T11:10:57;7.87;;;3.40;;
1174;SDS011;576;48.418;10.074;2022-08-21T11:13:35;3.77;;;3.40;;
1174;SDS011;576;48.418;10.074;2022-08-21T11:16:10;6.80;;;3.50;;
1174;SDS011;576;48.418;10.074;2022-08-21T11:18:46;6.67;;;3.13;;
1174;SDS011;576;48.418;10.074;2022-08-21T11:21:30;4.80;;;3.27;;
1174;SDS011;576;48.418;10.074;2022-08-21T11:24:12;3.00;;;2.80;;
1174;SDS011;576;48.418;10.074;2022-08-21T11:26:50;5.27;;;4.20;;
1174;SDS011;576;48.418;10.074;2022-08-21T11:29:23;4.80;;;3.30;;
1174;SDS011;576;48.418;10.074;2022-08-21T11:31:59;7.10;;;4.17;;
1174;SDS011;576;48.418;10.074;2022-08-21T11:34:44;5.37;;;3.10;;
1174;SDS011;576;48.418;10.074;2022-08-21T11:37:27;4.37;;;3.10;;
1174;SDS011;576;48.418;10.074;2022-08-21T11:40:16;2.80;;;2.60;;
1174;SDS011;576;48.418;10.074;2022-08-21T11:42:55;3.63;;;3.33;;
1174;SDS011;576;48.418;10.074;2022-08-21T11:45:36;12.90;;;4.10;;
1174;SDS011;576;48.418;10.074;2022-08-21T11:48:12;6.30;;;4.00;;
1174;SDS011;576;48.418;10.074;2022-08-21T11:50:50;4.03;;;3.30;;
1174;SDS011;576;48.418;10.074;2022-08-21T11:53:22;6.37;;;3.70;;
1174;SDS011;576;48.418;10.074;2022-08-21T11:55:59;3.07;;;2.87;;
1174;SDS011;576;48.418;10.074;2022-08-21T11:58:35;3.57;;;2.80;;
1174;SDS011;576;48.418;10.074;2022-08-21T12:01:07;4.00;;;3.70;;
1174;SDS011;576;48.418;10.074;2022-08-21T12:03:39;4.40;;;3.43;;
1174;SDS011;576;48.418;10.074;2022-08-21T12:06:10;3.37;;;3.07;;
1174;SDS011;576;48.418;10.074;2022-08-21T12:08:56;4.33;;;3.93;;
1174;SDS011;576;48.418;10.074;2022-08-21T12:11:28;4.97;;;3.20;;
1174;SDS011;576;48.418;10.074;2022-08-21T12:13:58;4.90;;;3.67;;
1174;SDS011;576;48.418;10.074;2022-08-21T12:16:28;4.17;;;3.83;;
1174;SDS011;576;48.418;10.074;2022-08-21T12:19:05;3.87;;;3.47;;
1174;SDS011;576;48.418;10.074;2022-08-21T12:21:34;4.27;;;3.40;;
1174;SDS011;576;48.418;10.074;2022-08-21T12:24:18;3.50;;;3.20;;
1174;SDS011;576;48.418;10.074;2022-08-21T12:27:20;3.03;;;2.80;;
1174;SDS011;576;48.418;10.074;2022-08-21T12:29:53;3.80;;;3.50;;
1174;SDS011;576;48.418;10.074;2022-08-21T12:32:24;3.53;;;3.23;;
1174;SDS011;576;48.418;10.074;2022-08-21T12:34:55;4.23;;;3.13;;
1174;SDS011;576;48.418;10.074;2022-08-21T12:37:33;4.43;;;3.00;;
1174;SDS011;576;48.418;10.074;2022-08-21T12:40:10;3.67;;;3.30;;
1174;SDS011;576;48.418;10.074;2022-08-21T12:42:48;4.33;;;3.93;;
1174;SDS011;576;48.418;10.074;2022-08-21T12:45:26;3.77;;;3.40;;
1174;SDS011;576;48.418;10.074;2022-08-21T12:47:59;3.53;;;3.23;;
1174;SDS011;576;48.418;10.074;2022-08-21T12:50:35;5.47;;;3.60;;
1174;SDS011;576;48.418;10.074;2022-08-21T12:53:06;3.27;;;2.97;;
1174;SDS011;576;48.418;10.074;2022-08-21T12:55:46;5.20;;;3.20;;
1174;SDS011;576;48.418;10.074;2022-08-21T12:58:19;3.73;;;3.10;;
1174;SDS011;576;48.418;10.074;2022-08-21T13:00:49;3.57;;;3.27;;
1174;SDS011;576;48.418;10.074;2022-08-21T13:03:19;2.93;;;2.73;;
1174;SDS011;576;48.418;10.074;2022-08-21T13:05:49;3.30;;;3.00;;
1174;SDS011;576;48.418;10.074;2022-08-21T13:08:19;3.67;;;3.40;;
1174;SDS011;576;48.418;10.074;2022-08-21T13:10:52;4.27;;;3.90;;
1174;SDS011;576;48.418;10.074;2022-08-21T13:13:38;3.67;;;2.93;;
1174;SDS011;576;48.418;10.074;2022-08-21T13:16:18;4.93;;;2.97;;
1174;SDS011;576;48.418;10.074;2022-08-21T13:18:52;3.60;;;3.30;;
1174;SDS011;576;48.418;10.074;2022-08-21T13:21:26;2.80;;;2.60;;
1174;SDS011;576;48.418;10.074;2022-08-21T13:24:13;3.10;;;2.80;;
1174;SDS011;576;48.418;10.074;2022-08-21T13:27:14;3.80;;;3.40;;
1174;SDS011;576;48.418;10.074;2022-08-21T13:29:46;2.90;;;2.67;;
1174;SDS011;576;48.418;10.074;2022-08-21T13:32:20;3.90;;;2.90;;
1174;SDS011;576;48.418;10.074;2022-08-21T13:34:53;3.30;;;2.77;;
1174;SDS011;576;48.418;10.074;2022-08-21T13:37:21;2.90;;;2.70;;
1174;SDS011;576;48.418;10.074;2022-08-21T13:39:52;2.90;;;2.80;;
1174;SDS011;576;48.418;10.074;2022-08-21T13:42:20;3.13;;;2.60;;
1174;SDS011;576;48.418;10.074;2022-08-21T13:44:52;3.17;;;2.87;;
1174;SDS011;576;48.418;10.074;2022-08-21T13:47:21;3.47;;;2.83;;
1174;SDS011;576;48.418;10.074;2022-08-21T13:49:49;3.27;;;2.97;;
1174;SDS011;576;48.418;10.074;2022-08-21T13:52:25;3.23;;;2.97;;
1174;SDS011;576;48.418;10.074;2022-08-21T13:54:55;2.97;;;2.73;;
1174;SDS011;576;48.418;10.074;2022-08-21T13:57:26;3.50;;;3.20;;
1174;SDS011;576;48.418;10.074;2022-08-21T14:00:11;3.00;;;2.80;;
1174;SDS011;576;48.418;10.074;2022-08-21T14:02:43;3.20;;;2.90;;
1174;SDS011;576;48.418;10.074;2022-08-21T14:05:16;3.37;;;3.17;;
1174;SDS011;576;48.418;10.074;2022-08-21T14:07:49;3.00;;;2.73;;
1174;SDS011;576;48.418;10.074;2022-08-21T14:10:19;2.93;;;2.73;;
1174;SDS011;576;48.418;10.074;2022-08-21T14:12:50;4.30;;;3.33;;
1174;SDS011;576;48.418;10.074;2022-08-21T14:15:25;2.60;;;2.40;;
1174;SDS011;576;48.418;10.074;2022-08-21T14:18:05;3.13;;;2.93;;
1174;SDS011;576;48.418;10.074;2022-08-21T14:20:36;2.43;;;2.23;;
1174;SDS011;576;48.418;10.074;2022-08-21T14:23:05;3.53;;;3.27;;
1174;SDS011;576;48.418;10.074;2022-08-21T14:25:37;2.90;;;2.70;;
1174;SDS011;576;48.418;10.074;2022-08-21T14:28:15;3.53;;;3.23;;
1174;SDS011;576;48.418;10.074;2022-08-21T14:30:55;4.10;;;3.47;;
1174;SDS011;576;48.418;10.074;2022-08-21T14:33:25;3.43;;;3.13;;
1174;SDS011;576;48.418;10.074;2022-08-21T14:35:54;2.87;;;2.67;;
1174;SDS011;576;48.418;10.074;2022-08-21T14:38:23;3.17;;;2.97;;
1174;SDS011;576;48.418;10.074;2022-08-21T14:40:54;3.33;;;2.70;;
1174;SDS011;576;48.418;10.074;2022-08-21T14:43:24;2.97;;;2.77;;
1174;SDS011;576;48.418;10.074;2022-08-21T14:45:55;3.60;;;3.30;;
1174;SDS011;576;48.418;10.074;2022-08-21T14:48:24;3.03;;;2.83;;
1174;SDS011;576;48.418;10.074;2022-08-21T14:50:52;3.40;;;3.10;;
1174;SDS011;576;48.418;10.074;2022-08-21T14:53:26;4.17;;;2.60;;
1174;SDS011;576;48.418;10.074;2022-08-21T14:55:54;5.37;;;3.53;;
1174;SDS011;576;48.418;10.074;2022-08-21T14:58:35;4.53;;;2.73;;
1174;SDS011;576;48.418;10.074;2022-08-21T15:01:08;4.27;;;3.40;;
1174;SDS011;576;48.418;10.074;2022-08-21T15:03:38;4.87;;;3.20;;
1174;SDS011;576;48.418;10.074;2022-08-21T15:06:07;3.13;;;2.83;;
1174;SDS011;576;48.418;10.074;2022-08-21T15:08:36;4.97;;;3.33;;
1174;SDS011;576;48.418;10.074;2022-08-21T15:11:05;3.60;;;3.30;;
1174;SDS011;576;48.418;10.074;2022-08-21T15:13:40;3.70;;;3.33;;
1174;SDS011;576;48.418;10.074;2022-08-21T15:16:11;3.33;;;2.50;;
1174;SDS011;576;48.418;10.074;2022-08-21T15:18:39;3.53;;;3.23;;
1174;SDS011;576;48.418;10.074;2022-08-21T15:21:09;4.20;;;3.20;;
1174;SDS011;576;48.418;10.074;2022-08-21T15:23:37;2.90;;;2.70;;
1174;SDS011;576;48.418;10.074;2022-08-21T15:26:09;3.07;;;2.77;;
1174;SDS011;576;48.418;10.074;2022-08-21T15:28:37;3.00;;;2.80;;
1174;SDS011;576;48.418;10.074;2022-08-21T15:31:06;3.03;;;2.83;;
1174;SDS011;576;48.418;10.074;2022-08-21T15:33:36;2.87;;;2.63;;
1174;SDS011;576;48.418;10.074;2022-08-21T15:36:04;6.30;;;2.93;;
1174;SDS011;576;48.418;10.074;2022-08-21T15:38:33;3.37;;;3.07;;
1174;SDS011;576;48.418;10.074;2022-08-21T15:41:02;3.43;;;3.17;;
1174;SDS011;576;48.418;10.074;2022-08-21T15:43:35;2.80;;;2.60;;
1174;SDS011;576;48.418;10.074;2022-08-21T15:46:08;3.33;;;3.10;;